createdAt,value
2023-02-12T00:00:38.376Z,21.70
2023-02-12T00:03:06.508Z,22.20
2023-02-12T00:05:38.147Z,21.98
2023-02-12T00:08:06.372Z,21.88
2023-02-12T00:10:34.079Z,21.33
2023-02-12T00:13:02.117Z,22.80
2023-02-12T00:15:29.866Z,22.90
2023-02-12T00:17:57.516Z,22.60
2023-02-12T00:20:25.230Z,22.75
2023-02-12T00:22:54.497Z,22.42
2023-02-12T00:25:22.542Z,22.25
2023-02-12T00:27:50.310Z,22.55
2023-02-12T00:30:18.633Z,21.10
2023-02-12T00:32:46.382Z,22.75
2023-02-12T00:35:14.425Z,22.38
2023-02-12T00:37:42.135Z,22.02
2023-02-12T00:40:12.163Z,21.73
2023-02-12T00:42:39.805Z,21.83
2023-02-12T00:45:08.277Z,21.20
2023-02-12T00:47:35.967Z,21.48
2023-02-12T00:50:03.678Z,23.13
2023-02-12T00:52:31.405Z,20.98
2023-02-12T00:54:59.127Z,22.70
2023-02-12T00:57:28.217Z,21.77
2023-02-12T00:59:55.872Z,22.88
2023-02-12T01:02:23.623Z,21.45
2023-02-12T01:04:51.411Z,20.33
2023-02-12T01:07:19.048Z,22.00
2023-02-12T01:09:46.807Z,21.55
2023-02-12T01:12:14.422Z,21.25
2023-02-12T01:14:43.463Z,22.00
2023-02-12T01:17:11.172Z,24.67
2023-02-12T01:19:38.871Z,24.45
2023-02-12T01:22:06.558Z,24.40
2023-02-12T01:24:34.237Z,23.60
2023-02-12T01:27:01.913Z,23.20
2023-02-12T01:29:29.584Z,23.23
2023-02-12T01:31:58.671Z,20.55
2023-02-12T01:34:26.404Z,22.10
2023-02-12T01:36:54.073Z,21.02
2023-02-12T01:39:22.256Z,20.75
2023-02-12T01:41:52.061Z,20.77
2023-02-12T01:44:22.256Z,20.77
2023-02-12T01:46:51.900Z,20.02
2023-02-12T01:49:25.847Z,19.42
2023-02-12T01:51:57.176Z,20.08
2023-02-12T01:54:26.782Z,20.90
2023-02-12T01:56:54.789Z,20.00
2023-02-12T01:59:23.260Z,22.05
2023-02-12T02:01:51.003Z,21.27
2023-02-12T02:04:23.480Z,21.92
2023-02-12T02:06:56.414Z,20.52
2023-02-12T02:09:24.832Z,23.45
2023-02-12T02:12:10.294Z,20.83
2023-02-12T02:14:39.725Z,20.98
2023-02-12T02:17:34.608Z,20.77
2023-02-12T02:20:42.806Z,20.25
2023-02-12T02:23:43.225Z,21.73
2023-02-12T02:26:30.813Z,21.80
2023-02-12T02:29:21.520Z,22.15
2023-02-12T02:31:58.150Z,22.27
2023-02-12T02:34:35.130Z,21.20
2023-02-12T02:37:12.133Z,22.65
2023-02-12T02:39:45.064Z,23.20
2023-02-12T02:42:18.384Z,22.48
2023-02-12T02:44:51.701Z,21.85
2023-02-12T02:47:24.892Z,22.17
2023-02-12T02:49:57.390Z,22.15
2023-02-12T02:52:33.890Z,21.63
2023-02-12T02:55:06.718Z,20.05
2023-02-12T02:57:40.039Z,22.90
2023-02-12T03:00:14.741Z,24.48
2023-02-12T03:02:48.206Z,22.90
2023-02-12T03:05:22.437Z,21.48
2023-02-12T03:07:54.794Z,21.73
2023-02-12T03:10:26.684Z,21.65
2023-02-12T03:13:00.599Z,22.33
2023-02-12T03:15:34.921Z,21.25
2023-02-12T03:18:08.946Z,22.25
2023-02-12T03:20:43.210Z,22.88
2023-02-12T03:23:16.304Z,23.58
2023-02-12T03:25:50.923Z,24.42
2023-02-12T03:28:22.252Z,24.30
2023-02-12T03:30:57.422Z,24.25
2023-02-12T03:33:31.599Z,22.75
2023-02-12T03:36:03.321Z,22.00
2023-02-12T03:38:38.477Z,21.08
2023-02-12T03:41:12.411Z,22.08
2023-02-12T03:43:50.333Z,21.92
2023-02-12T03:46:24.102Z,21.73
2023-02-12T03:49:02.402Z,20.30
2023-02-12T03:51:34.603Z,21.85
2023-02-12T03:54:03.593Z,20.25
2023-02-12T03:56:37.330Z,23.08
2023-02-12T03:59:05.723Z,22.23
2023-02-12T04:01:35.107Z,19.45
2023-02-12T04:04:07.132Z,20.52
2023-02-12T04:06:35.156Z,20.85
2023-02-12T04:09:06.100Z,20.65
2023-02-12T04:11:47.732Z,21.50
2023-02-12T04:14:25.820Z,19.77
2023-02-12T04:17:01.525Z,18.95
2023-02-12T04:19:40.608Z,20.15
2023-02-12T04:22:19.663Z,19.80
2023-02-12T04:24:53.474Z,19.70
2023-02-12T04:27:26.566Z,19.75
2023-02-12T04:29:59.896Z,19.25
2023-02-12T04:32:34.621Z,19.20
2023-02-12T04:35:08.405Z,19.65
2023-02-12T04:37:41.130Z,19.70
2023-02-12T04:40:14.603Z,19.20
2023-02-12T04:42:44.103Z,19.42
2023-02-12T04:45:12.557Z,20.35
2023-02-12T04:47:40.231Z,19.60
2023-02-12T04:50:10.529Z,21.23
2023-02-12T04:52:38.121Z,20.48
2023-02-12T04:55:06.202Z,18.70
2023-02-12T04:57:33.931Z,20.45
2023-02-12T05:00:01.849Z,21.33
2023-02-12T05:02:29.522Z,19.38
2023-02-12T05:04:57.178Z,21.50
2023-02-12T05:07:26.188Z,19.40
2023-02-12T05:09:53.892Z,20.50
2023-02-12T05:12:21.698Z,20.02
2023-02-12T05:14:49.305Z,20.70
2023-02-12T05:17:17.057Z,22.77
2023-02-12T05:19:44.748Z,21.92
2023-02-12T05:22:12.448Z,20.40
2023-02-12T05:24:41.561Z,21.45
2023-02-12T05:27:09.588Z,20.95
2023-02-12T05:29:37.451Z,21.27
2023-02-12T05:32:06.898Z,23.77
2023-02-12T05:34:35.425Z,24.25
2023-02-12T05:37:03.084Z,22.38
2023-02-12T05:39:30.846Z,23.55
2023-02-12T05:41:59.836Z,21.33
2023-02-12T05:44:27.550Z,20.02
2023-02-12T05:46:55.213Z,20.63
2023-02-12T05:49:22.841Z,20.73
2023-02-12T05:51:50.625Z,22.30
2023-02-12T05:54:18.225Z,21.50
2023-02-12T05:56:48.181Z,22.02
2023-02-12T05:59:21.410Z,21.05
2023-02-12T06:01:51.082Z,21.73
2023-02-12T06:04:20.243Z,22.13
2023-02-12T06:06:48.025Z,23.17
2023-02-12T06:09:16.195Z,21.98
2023-02-12T06:11:44.528Z,21.35
2023-02-12T06:14:15.859Z,24.05
2023-02-12T06:16:47.629Z,23.67
2023-02-12T06:19:15.624Z,23.35
2023-02-12T06:21:43.362Z,23.35
2023-02-12T06:24:12.085Z,23.00
2023-02-12T06:26:39.841Z,24.15
2023-02-12T06:29:07.748Z,24.80
2023-02-12T06:31:37.497Z,24.52
2023-02-12T06:34:09.282Z,24.65
2023-02-12T06:36:38.759Z,24.13
2023-02-12T06:39:09.053Z,23.08
2023-02-12T06:41:36.676Z,23.95
2023-02-12T06:44:04.802Z,24.30
2023-02-12T06:46:32.674Z,24.10
2023-02-12T06:49:01.699Z,24.38
2023-02-12T06:51:31.515Z,23.15
2023-02-12T06:53:59.604Z,24.20
2023-02-12T06:56:28.414Z,23.63
2023-02-12T06:58:57.735Z,24.48
2023-02-12T07:01:26.944Z,23.70
2023-02-12T07:03:58.611Z,24.92
2023-02-12T07:06:27.634Z,23.40
2023-02-12T07:08:57.553Z,24.50
2023-02-12T07:11:26.069Z,24.48
2023-02-12T07:13:53.747Z,24.40
2023-02-12T07:16:22.198Z,23.95
2023-02-12T07:18:50.299Z,24.15
2023-02-12T07:21:18.629Z,25.13
2023-02-12T07:23:50.854Z,23.90
2023-02-12T07:26:22.411Z,27.17
2023-02-12T07:28:50.605Z,24.90
2023-02-12T07:31:20.580Z,27.70
2023-02-12T07:33:48.720Z,26.50
2023-02-12T07:36:18.791Z,26.83
2023-02-12T07:38:46.820Z,26.10
2023-02-12T07:41:16.245Z,26.45
2023-02-12T07:43:47.615Z,27.23
2023-02-12T07:46:17.682Z,27.02
2023-02-12T07:48:46.035Z,26.45
2023-02-12T07:51:16.045Z,26.15
2023-02-12T07:53:44.025Z,26.80
2023-02-12T07:56:13.640Z,28.13
2023-02-12T07:58:45.009Z,27.27
2023-02-12T08:01:16.021Z,26.70
2023-02-12T08:03:44.156Z,26.75
2023-02-12T08:06:14.265Z,27.15
2023-02-12T08:08:42.081Z,29.52
2023-02-12T08:11:12.729Z,27.88
2023-02-12T08:13:40.842Z,29.50
2023-02-12T08:16:10.905Z,25.48
2023-02-12T08:18:40.414Z,26.48
2023-02-12T08:21:10.368Z,26.52
2023-02-12T08:23:38.213Z,26.75
2023-02-12T08:26:10.995Z,27.02
2023-02-12T08:28:40.989Z,27.60
2023-02-12T08:31:11.204Z,26.48
2023-02-12T08:33:40.369Z,28.38
2023-02-12T08:36:10.566Z,27.13
2023-02-12T08:38:39.540Z,26.95
2023-02-12T08:41:09.439Z,28.05
2023-02-12T08:43:37.639Z,26.63
2023-02-12T08:46:08.555Z,27.30
2023-02-12T08:48:36.924Z,26.65
2023-02-12T08:51:08.303Z,28.48
2023-02-12T08:53:36.254Z,27.15
2023-02-12T08:56:04.802Z,29.08
2023-02-12T08:58:32.949Z,30.30
2023-02-12T09:01:00.944Z,32.00
2023-02-12T09:03:28.759Z,30.63
2023-02-12T09:05:56.839Z,31.45
2023-02-12T09:08:26.127Z,30.70
2023-02-12T09:10:54.110Z,32.30
2023-02-12T09:13:21.870Z,31.02
2023-02-12T09:15:49.665Z,30.83
2023-02-12T09:18:17.715Z,28.50
2023-02-12T09:20:46.130Z,27.60
2023-02-12T09:23:15.481Z,28.85
2023-02-12T09:25:46.420Z,26.00
2023-02-12T09:28:15.620Z,30.52
2023-02-12T09:30:43.347Z,31.13
2023-02-12T09:33:13.150Z,29.52
2023-02-12T09:35:41.591Z,30.52
2023-02-12T09:38:09.953Z,28.95
2023-02-12T09:40:45.004Z,31.05
2023-02-12T09:43:32.066Z,30.25
2023-02-12T09:46:05.939Z,29.55
2023-02-12T09:48:58.924Z,28.90
2023-02-12T09:51:27.634Z,28.65
2023-02-12T09:54:04.210Z,28.75
2023-02-12T09:56:32.494Z,28.50
2023-02-12T09:59:06.660Z,28.63
2023-02-12T10:01:34.894Z,30.00
2023-02-12T10:04:03.311Z,27.17
2023-02-12T10:06:34.745Z,27.67
2023-02-12T10:09:16.066Z,27.55
2023-02-12T10:11:54.775Z,26.27
2023-02-12T10:14:49.939Z,25.63
2023-02-12T10:17:25.105Z,28.30
2023-02-12T10:20:23.625Z,26.48
2023-02-12T10:23:06.305Z,27.40
2023-02-12T10:25:42.148Z,25.67
2023-02-12T10:28:14.399Z,26.38
2023-02-12T10:30:49.275Z,25.23
2023-02-12T10:33:20.377Z,26.90
2023-02-12T10:35:54.869Z,23.63
2023-02-12T10:38:27.426Z,27.77
2023-02-12T10:40:57.943Z,24.42
2023-02-12T10:43:26.468Z,20.13
2023-02-12T10:45:55.905Z,17.80
2023-02-12T10:48:27.103Z,23.08
2023-02-12T10:51:09.729Z,23.38
2023-02-12T10:53:39.924Z,23.67
2023-02-12T10:56:17.330Z,22.65
2023-02-12T10:58:54.553Z,21.48
2023-02-12T11:01:28.003Z,20.00
2023-02-12T11:03:57.020Z,20.00
2023-02-12T11:06:28.583Z,19.52
2023-02-12T11:08:56.704Z,18.70
2023-02-12T11:11:28.416Z,19.80
2023-02-12T11:13:58.991Z,15.35
2023-02-12T11:16:31.903Z,17.25
2023-02-12T11:19:02.018Z,15.82
2023-02-12T11:21:30.026Z,16.08
2023-02-12T11:23:58.107Z,15.00
2023-02-12T11:26:34.514Z,15.27
2023-02-12T11:29:05.653Z,15.75
2023-02-12T11:31:40.229Z,15.20
2023-02-12T11:34:11.568Z,16.77
2023-02-12T11:36:43.819Z,15.40
2023-02-12T11:39:21.283Z,14.55
2023-02-12T11:41:53.607Z,13.48
2023-02-12T11:44:24.033Z,12.50
2023-02-12T11:46:56.476Z,12.35
2023-02-12T11:49:26.825Z,12.20
2023-02-12T11:51:55.761Z,10.40
2023-02-12T11:54:26.686Z,8.18
2023-02-12T11:56:55.456Z,7.07
2023-02-12T11:59:34.612Z,7.07
2023-02-12T12:02:25.820Z,7.43
2023-02-12T12:04:57.286Z,7.57
2023-02-12T12:07:31.353Z,8.07
2023-02-12T12:10:04.709Z,7.82
2023-02-12T12:12:41.751Z,9.20
2023-02-12T12:15:35.969Z,7.85
2023-02-12T12:18:30.143Z,8.18
2023-02-12T12:21:04.735Z,9.05
2023-02-12T12:23:38.457Z,9.20
2023-02-12T12:26:12.146Z,8.75
2023-02-12T12:29:02.808Z,7.97
2023-02-12T12:31:34.458Z,8.05
2023-02-12T12:34:10.505Z,8.05
2023-02-12T12:37:13.713Z,7.75
2023-02-12T12:39:55.141Z,7.85
2023-02-12T12:42:54.608Z,8.63
2023-02-12T12:45:43.754Z,7.53
2023-02-12T12:48:26.871Z,6.78
2023-02-12T12:51:14.760Z,6.22
2023-02-12T12:53:55.792Z,8.05
2023-02-12T12:56:36.222Z,6.75
2023-02-12T12:59:30.367Z,6.20
2023-02-12T13:02:17.843Z,6.97
2023-02-12T13:05:11.040Z,7.78
2023-02-12T13:07:52.921Z,6.38
2023-02-12T13:10:30.673Z,6.32
2023-02-12T13:13:16.309Z,6.80
2023-02-12T13:15:51.996Z,7.25
2023-02-12T13:18:32.314Z,6.75
2023-02-12T13:21:12.735Z,6.38
2023-02-12T13:23:47.213Z,6.82
2023-02-12T13:26:20.296Z,6.85
2023-02-12T13:28:53.554Z,6.45
2023-02-12T13:31:33.550Z,6.88
2023-02-12T13:34:05.542Z,7.30
2023-02-12T13:36:36.493Z,7.10
2023-02-12T13:39:16.946Z,6.55
2023-02-12T13:41:50.846Z,6.60
2023-02-12T13:44:28.829Z,6.60
2023-02-12T13:47:01.446Z,6.07
2023-02-12T13:49:42.545Z,7.68
2023-02-12T13:52:19.893Z,5.75
2023-02-12T13:54:59.392Z,5.75
2023-02-12T13:57:27.158Z,5.30
2023-02-12T13:59:55.679Z,4.90
2023-02-12T14:02:45.980Z,5.18
2023-02-12T14:05:29.632Z,5.10
2023-02-12T14:08:00.120Z,4.45
2023-02-12T14:10:32.703Z,4.53
2023-02-12T14:13:16.130Z,3.83
2023-02-12T14:15:46.365Z,4.20
2023-02-12T14:18:30.110Z,3.78
2023-02-12T14:21:37.950Z,4.25
2023-02-12T14:24:51.033Z,3.95
2023-02-12T14:27:28.373Z,3.55
2023-02-12T14:30:05.127Z,4.10
2023-02-12T14:33:10.072Z,3.85
2023-02-12T14:35:40.220Z,2.95
2023-02-12T14:38:47.550Z,3.40
2023-02-12T14:41:34.263Z,2.97
2023-02-12T14:44:45.614Z,3.10
2023-02-12T14:47:37.174Z,3.55
2023-02-12T14:50:12.994Z,3.80
2023-02-12T14:52:44.837Z,3.42
2023-02-12T14:55:23.291Z,3.67
2023-02-12T14:57:55.659Z,2.83
2023-02-12T15:00:28.801Z,3.60
2023-02-12T15:03:02.641Z,3.38
2023-02-12T15:05:33.328Z,2.97
2023-02-12T15:08:04.162Z,3.85
2023-02-12T15:10:38.436Z,3.42
2023-02-12T15:13:20.918Z,4.30
2023-02-12T15:15:53.087Z,3.63
2023-02-12T15:18:29.216Z,3.00
2023-02-12T15:21:03.541Z,3.00
2023-02-12T15:23:41.547Z,3.90
2023-02-12T15:26:15.788Z,3.55
2023-02-12T15:28:46.739Z,3.20
2023-02-12T15:31:17.946Z,3.58
2023-02-12T15:33:49.257Z,3.10
2023-02-12T15:36:20.019Z,3.55
2023-02-12T15:38:51.612Z,3.63
2023-02-12T15:41:28.629Z,4.35
2023-02-12T15:43:56.805Z,3.80
2023-02-12T15:46:24.589Z,3.90
2023-02-12T15:48:55.475Z,3.40
2023-02-12T15:51:30.648Z,4.20
2023-02-12T15:54:01.173Z,2.90
2023-02-12T15:56:29.263Z,3.83
2023-02-12T15:58:59.334Z,3.10
2023-02-12T16:01:29.421Z,3.33
2023-02-12T16:04:00.476Z,3.28
2023-02-12T16:06:32.336Z,3.47
2023-02-12T16:09:03.413Z,3.30
2023-02-12T16:11:32.598Z,3.35
2023-02-12T16:14:02.895Z,3.63
2023-02-12T16:16:32.606Z,3.90
2023-02-12T16:19:19.878Z,3.67
2023-02-12T16:21:50.575Z,3.33
2023-02-12T16:24:26.543Z,3.00
2023-02-12T16:26:54.626Z,4.00
2023-02-12T16:29:22.793Z,4.18
2023-02-12T16:31:55.683Z,3.83
2023-02-12T16:34:37.137Z,3.63
2023-02-12T16:37:42.522Z,3.65
2023-02-12T16:40:33.364Z,3.28
2023-02-12T16:43:26.041Z,3.95
2023-02-12T16:46:04.929Z,3.42
2023-02-12T16:48:39.249Z,4.72
2023-02-12T16:51:22.341Z,4.78
2023-02-12T16:53:53.836Z,4.30
2023-02-12T16:56:23.429Z,4.45
2023-02-12T16:58:54.609Z,3.78
2023-02-12T17:01:25.280Z,5.10
2023-02-12T17:03:54.170Z,4.70
2023-02-12T17:06:25.793Z,4.68
2023-02-12T17:08:53.582Z,4.00
2023-02-12T17:11:23.027Z,5.20
2023-02-12T17:13:52.560Z,4.90
2023-02-12T17:16:30.269Z,5.57
2023-02-12T17:18:59.507Z,5.70
2023-02-12T17:21:30.712Z,5.50
2023-02-12T17:23:58.478Z,6.40
2023-02-12T17:26:26.892Z,5.50
2023-02-12T17:28:54.549Z,7.32
2023-02-12T17:31:23.852Z,6.25
2023-02-12T17:33:51.872Z,5.78
2023-02-12T17:36:19.607Z,5.80
2023-02-12T17:38:48.772Z,5.07
2023-02-12T17:41:16.573Z,5.10
2023-02-12T17:43:44.440Z,6.00
2023-02-12T17:46:12.957Z,6.20
2023-02-12T17:48:41.400Z,7.25
2023-02-12T17:51:11.466Z,5.85
2023-02-12T17:53:39.239Z,6.15
2023-02-12T17:56:11.370Z,7.82
2023-02-12T17:58:39.551Z,8.82
2023-02-12T18:01:08.937Z,7.95
2023-02-12T18:03:37.427Z,7.95
2023-02-12T18:06:06.891Z,7.47
2023-02-12T18:08:34.841Z,7.18
2023-02-12T18:11:06.394Z,7.63
2023-02-12T18:13:35.651Z,7.20
2023-02-12T18:16:03.993Z,7.50
2023-02-12T18:18:32.863Z,8.15
2023-02-12T18:21:00.552Z,7.80
2023-02-12T18:23:28.192Z,8.20
2023-02-12T18:25:55.892Z,6.70
2023-02-12T18:28:23.671Z,8.77
2023-02-12T18:30:59.463Z,7.43
2023-02-12T18:33:27.372Z,8.15
2023-02-12T18:36:00.045Z,8.18
2023-02-12T18:38:27.956Z,7.85
2023-02-12T18:40:55.897Z,7.55
2023-02-12T18:43:24.841Z,9.40
2023-02-12T18:45:53.071Z,7.72
2023-02-12T18:48:23.258Z,7.50
2023-02-12T18:50:53.174Z,8.52
2023-02-12T18:53:20.965Z,8.82
2023-02-12T18:55:48.649Z,8.35
2023-02-12T18:58:16.283Z,10.13
2023-02-12T19:00:43.908Z,9.35
2023-02-12T19:03:11.569Z,9.77
2023-02-12T19:05:40.639Z,9.90
2023-02-12T19:08:08.446Z,10.02
2023-02-12T19:10:39.130Z,11.18
2023-02-12T19:13:07.079Z,10.75
2023-02-12T19:15:34.935Z,9.15
2023-02-12T19:18:02.643Z,9.40
2023-02-12T19:20:30.344Z,9.15
2023-02-12T19:22:59.381Z,9.88
2023-02-12T19:25:27.074Z,10.43
2023-02-12T19:27:54.841Z,10.43
2023-02-12T19:30:22.718Z,9.85
2023-02-12T19:32:50.508Z,10.05
2023-02-12T19:35:18.330Z,10.10
2023-02-12T19:37:46.012Z,10.73
2023-02-12T19:40:15.627Z,12.90
2023-02-12T19:42:43.337Z,11.30
2023-02-12T19:45:11.290Z,11.70
2023-02-12T19:47:39.178Z,12.07
2023-02-12T19:50:08.306Z,10.80
2023-02-12T19:52:36.277Z,9.65
2023-02-12T19:55:04.102Z,10.32
2023-02-12T19:57:36.729Z,9.20
2023-02-12T20:00:05.350Z,8.98
2023-02-12T20:02:33.154Z,9.18
2023-02-12T20:05:00.877Z,9.15
2023-02-12T20:07:28.621Z,8.90
2023-02-12T20:09:56.353Z,9.93
2023-02-12T20:12:24.153Z,9.70
2023-02-12T20:14:55.480Z,9.63
2023-02-12T20:17:23.239Z,9.50
2023-02-12T20:19:50.949Z,9.85
2023-02-12T20:22:18.558Z,9.60
2023-02-12T20:24:46.353Z,10.30
2023-02-12T20:27:14.095Z,9.60
2023-02-12T20:29:41.846Z,9.50
2023-02-12T20:32:11.975Z,8.25
2023-02-12T20:34:50.505Z,8.50
2023-02-12T20:37:19.163Z,11.57
2023-02-12T20:39:48.163Z,10.15
2023-02-12T20:42:15.877Z,13.00
2023-02-12T20:44:43.607Z,12.82
2023-02-12T20:47:12.637Z,13.75
2023-02-12T20:49:40.374Z,14.90
2023-02-12T20:52:08.317Z,11.10
2023-02-12T20:54:37.937Z,11.45
2023-02-12T20:57:06.993Z,10.48
2023-02-12T20:59:34.801Z,11.50
2023-02-12T21:02:02.623Z,11.82
2023-02-12T21:04:32.291Z,10.40
2023-02-12T21:07:00.506Z,10.23
2023-02-12T21:10:00.386Z,10.18
2023-02-12T21:12:46.166Z,10.93
2023-02-12T21:15:41.751Z,10.80
2023-02-12T21:18:25.735Z,11.68
2023-02-12T21:21:36.668Z,11.10
2023-02-12T21:24:35.036Z,10.98
2023-02-12T21:27:33.335Z,10.20
2023-02-12T21:30:16.480Z,11.60
2023-02-12T21:33:02.529Z,10.60
2023-02-12T21:35:45.794Z,10.75
2023-02-12T21:41:48.042Z,9.43
2023-02-12T21:44:46.457Z,10.07
2023-02-12T21:50:45.961Z,11.82
2023-02-12T21:53:49.482Z,11.43
2023-02-12T21:56:44.490Z,11.00
2023-02-12T21:59:27.780Z,10.35
2023-02-12T22:02:19.227Z,11.15
2023-02-12T22:05:00.419Z,11.15
2023-02-12T22:08:33.852Z,10.95
2023-02-12T22:11:06.163Z,10.57
2023-02-12T22:13:54.690Z,11.40
2023-02-12T22:16:45.264Z,10.88
2023-02-12T22:19:40.054Z,10.63
2023-02-12T22:22:21.985Z,11.85
2023-02-12T22:25:11.392Z,11.05
2023-02-12T22:31:32.962Z,12.57
2023-02-12T22:34:20.090Z,10.70
2023-02-12T22:37:16.185Z,11.57
2023-02-12T22:40:08.680Z,10.88
2023-02-12T22:43:17.708Z,11.75
2023-02-12T22:45:45.593Z,10.50
2023-02-12T22:48:13.303Z,10.20
2023-02-12T22:50:41.103Z,10.15
2023-02-12T22:53:08.815Z,11.43
2023-02-12T22:55:36.837Z,10.07
2023-02-12T22:58:05.945Z,10.65
2023-02-12T23:00:33.911Z,10.70
2023-02-12T23:03:01.692Z,10.05
2023-02-12T23:05:29.438Z,10.95
2023-02-12T23:07:57.260Z,10.15
2023-02-12T23:10:24.998Z,11.18
2023-02-12T23:12:52.751Z,10.93
2023-02-12T23:15:21.858Z,11.95
2023-02-12T23:17:49.839Z,11.52
2023-02-12T23:20:17.952Z,10.75
2023-02-12T23:22:45.648Z,10.80
2023-02-12T23:25:13.465Z,10.82
2023-02-12T23:27:41.185Z,11.98
2023-02-12T23:30:09.941Z,10.75
2023-02-12T23:32:39.083Z,10.68
2023-02-12T23:35:07.355Z,10.70
2023-02-12T23:37:35.093Z,11.82
2023-02-12T23:40:02.751Z,11.30
2023-02-12T23:42:30.473Z,11.23
2023-02-12T23:44:58.141Z,10.63
2023-02-12T23:47:25.972Z,10.35
2023-02-12T23:49:55.098Z,11.63
2023-02-12T23:52:22.732Z,12.50
2023-02-12T23:54:50.374Z,11.15
2023-02-12T23:57:18.257Z,12.20
2023-02-12T23:59:46.155Z,12.07
